Tropic Palm — J8PB — position and weather

sailwx.info

Track history (hours):
 
Tides and Currents Weather Stations Pressure Air Temp Water Temp Dewpoint Dewpoint Depression Visibility Wind Speed Wind Dir Waves Ship Positions

Tropic Palm

Last reported at 2017-Dec-11 10:35 UTC. Time now 2017-Dec-12 04:16 UTC.
Position N 18°17' W 064°41'.

Type: Cargo ship. MMSI: 377911000.

Date/timePositionNaut miles runAvg speedWind from/ knotsBaromVisibWave heightAir tempDewpointWater temp
2017-Dec-11 10:35N 18°17' W 064°41'5 9.4
2017-Dec-11 10:06N 18°17' W 064°46'110.0
2017-Dec-11 10:00N 18°16' W 064°47'51172.9
2017-Dec-11 10:00N 18°12' W 064°48'612.0 110 / 141013.0 5.4 25.020.526.0
2017-Dec-11 09:30N 18°17' W 064°52'510.1
2017-Dec-11 09:01N 18°19' W 064°56'1 2.1
2017-Dec-11 08:28N 18°20' W 064°57'0 0.0
2017-Dec-11 07:58N 18°20' W 064°57'0 0.0
2017-Dec-11 07:28N 18°20' W 064°57'0 0.0
2017-Dec-11 06:58N 18°20' W 064°57'0 0.0
2017-Dec-11 06:28N 18°20' W 064°57'0 0.3
2017-Dec-11 06:00N 18°20' W 064°57'1 2.9
2017-Dec-11 05:30N 18°19' W 064°56'0 0.1
2017-Dec-11 04:59N 18°19' W 064°56'0 0.0
2017-Dec-11 04:29N 18°19' W 064°56'0 0.0
2017-Dec-11 03:59N 18°19' W 064°56'0 0.0
2017-Dec-11 03:29N 18°19' W 064°56'0 0.0
2017-Dec-11 02:59N 18°19' W 064°56'0 0.0
2017-Dec-11 02:29N 18°19' W 064°56'2 4.7
2017-Dec-11 02:00N 18°18' W 064°54'2167.5 090 / 181016.0 5.4 26.021.527.0
2017-Dec-11 01:59N 18°19' W 064°56'0 0.0
2017-Dec-11 01:29N 18°19' W 064°56'0 0.0
2017-Dec-11 00:59N 18°19' W 064°56'0 0.0
2017-Dec-11 00:29N 18°19' W 064°56'0 0.0
2017-Dec-10 23:59N 18°19' W 064°56'0 0.0
2017-Dec-10 23:29N 18°19' W 064°56'0 0.0
2017-Dec-10 22:59N 18°19' W 064°56'0 0.0
2017-Dec-10 22:29N 18°19' W 064°56'1 1.2
2017-Dec-10 22:00N 18°19' W 064°56'1 0.5
2017-Dec-10 20:07N 18°20' W 064°57'0 0.0
2017-Dec-10 19:58N 18°20' W 064°57'0 0.0
2017-Dec-10 19:30N 18°20' W 064°57'0 0.0
2017-Dec-10 18:55N 18°20' W 064°57'0 0.0
2017-Dec-10 18:22N 18°20' W 064°57'0 0.0
2017-Dec-10 17:52N 18°20' W 064°57'0 0.0
2017-Dec-10 17:28N 18°20' W 064°57'0 0.0
2017-Dec-10 16:58N 18°20' W 064°57'0 0.0
2017-Dec-10 16:28N 18°20' W 064°57'0 0.0
2017-Dec-10 16:00N 18°20' W 064°57'0 0.0
2017-Dec-10 15:19N 18°20' W 064°57'0 0.0
2017-Dec-10 14:58N 18°20' W 064°57'0 0.0
2017-Dec-10 14:30N 18°20' W 064°57'0 0.0
2017-Dec-10 13:51N 18°20' W 064°57'0 0.0
2017-Dec-10 13:07N 18°20' W 064°57'0 0.0
2017-Dec-10 13:00N 18°20' W 064°57'0 0.0
2017-Dec-10 12:28N 18°20' W 064°57'0 0.0
2017-Dec-10 10:48N 18°20' W 064°57'0 0.0
2017-Dec-10 10:30N 18°20' W 064°57'0 0.0
2017-Dec-10 10:00N 18°20' W 064°57'0 0.0
2017-Dec-10 09:30N 18°20' W 064°57'0 0.0
2017-Dec-10 09:00N 18°20' W 064°57'0 0.0
2017-Dec-10 08:30N 18°20' W 064°57'0 0.0
2017-Dec-10 08:00N 18°20' W 064°57'0 0.0
2017-Dec-10 07:30N 18°20' W 064°57'0 0.0
2017-Dec-10 07:00N 18°20' W 064°57'0 0.0
2017-Dec-10 06:30N 18°20' W 064°57'0 0.0
2017-Dec-10 06:00N 18°20' W 064°57'0 0.0
2017-Dec-10 05:30N 18°20' W 064°57'0 0.0
2017-Dec-10 05:00N 18°20' W 064°57'0 0.0
2017-Dec-10 04:30N 18°20' W 064°57'0 0.0
2017-Dec-10 04:00N 18°20' W 064°57'0 0.0
2017-Dec-10 03:30N 18°20' W 064°57'0 0.0
2017-Dec-10 03:00N 18°20' W 064°57'0 0.0
2017-Dec-10 02:30N 18°20' W 064°57'0 0.0
2017-Dec-10 01:57N 18°20' W 064°57'0 0.0
2017-Dec-10 01:30N 18°20' W 064°57'0 0.0
2017-Dec-10 01:00N 18°20' W 064°57'0 0.0
2017-Dec-10 00:30N 18°20' W 064°57'0 0.0
2017-Dec-09 23:57N 18°20' W 064°57'0 0.0
2017-Dec-09 23:30N 18°20' W 064°57'0 0.0
2017-Dec-09 23:00N 18°20' W 064°57'0 0.0
2017-Dec-09 22:30N 18°20' W 064°57'0 0.0
2017-Dec-09 22:00N 18°20' W 064°57'0 0.2
2017-Dec-09 21:30N 18°20' W 064°57'0 0.0
2017-Dec-09 20:48N 18°20' W 064°57'0 0.0
2017-Dec-09 20:30N 18°20' W 064°57'0 0.0
2017-Dec-09 20:00N 18°20' W 064°57'0 0.0
2017-Dec-09 19:30N 18°20' W 064°57'0 0.0
2017-Dec-09 19:00N 18°20' W 064°57'0 0.0
2017-Dec-09 18:30N 18°20' W 064°57'0 0.0
2017-Dec-09 18:00N 18°20' W 064°57'2 4.1
2017-Dec-09 17:30N 18°18' W 064°56'1 1.9
2017-Dec-09 17:00N 18°17' W 064°56'4 8.0
2017-Dec-09 16:30N 18°13' W 064°56'5 8.5
2017-Dec-09 15:55N 18°08' W 064°56'4 8.4
2017-Dec-09 15:25N 18°04' W 064°56'1611.3
2017-Dec-09 14:00N 17°48' W 064°54'13 0.7 100 / 28 10.8 27.019.327.0
2017-Dec-08 18:00N 17°36' W 065°00'4010.0 110 / 221015.0 5.4 27.021.026.0
2017-Dec-08 14:00N 17°36' W 065°42'57 9.6 080 / 351017.010.8 28.022.127.0
2017-Dec-08 08:00N 17°42' W 066°42'17 8.6 090 / 201013.3 5.4 27.022.626.0
2017-Dec-08 06:00N 17°42' W 067°00'4010.1 090 / 201014.5 5.4 27.021.026.0
2017-Dec-08 02:00N 17°48' W 067°42'8020.0 060 / 291016.2 5.4 26.019.927.0
2017-Dec-07 22:00N 17°54' W 066°18'15538.6 050 / 181014.9 5.4 25.018.827.0
2017-Dec-07 18:00N 18°06' W 069°00'47 1.7 090 / 201015.0 5.4 29.023.226.0
2017-Dec-06 14:00N 17°54' W 068°12'4611.5 100 / 261018.510.8 27.022.628.0
2017-Dec-06 10:00N 17°48' W 067°24'29 9.7 090 / 151016.2 5.4 25.020.526.0
2017-Dec-06 07:00N 17°42' W 066°54'5711.5 090 / 151016.0 5.4 27.022.626.0
2017-Dec-06 02:00N 17°48' W 065°54'36 9.1 100 / 251016.5 5.4 27.024.127.0
2017-Dec-05 22:00N 18°00' W 065°18'44 2.3 110 / 141014.5 5.4 25.020.526.0
2017-Dec-05 03:00N 18°18' W 064°36'11 0.6 100 / 191015.0 5.4 26.023.127.0
2017-Dec-04 09:08N 18°16' W 064°47'2 9.6
2017-Dec-04 08:56N 18°16' W 064°49'4 9.4
2017-Dec-04 08:30N 18°17' W 064°53'3 6.2
2017-Dec-04 08:01N 18°19' W 064°56'7427.6
2017-Dec-04 08:00N 18°12' W 064°54'714.4 110 / 121013.0 5.4 25.020.526.0
2017-Dec-04 07:30N 18°19' W 064°56'0 0.0
2017-Dec-04 07:00N 18°19' W 064°56'0 0.0
2017-Dec-04 06:30N 18°19' W 064°56'0 0.0
2017-Dec-04 06:00N 18°19' W 064°56'2196.1
2017-Dec-04 06:00N 18°18' W 064°54'2 4.5 140 / 81013.0 5.4 26.523.625.0
2017-Dec-04 05:30N 18°19' W 064°56'0 0.0
2017-Dec-04 05:00N 18°19' W 064°56'0 0.0
2017-Dec-04 04:30N 18°19' W 064°56'0 0.0
2017-Dec-04 03:58N 18°19' W 064°56'0 0.0
2017-Dec-04 03:30N 18°19' W 064°56'0 0.0
2017-Dec-04 03:01N 18°19' W 064°56'0 0.0
2017-Dec-04 02:31N 18°19' W 064°56'0 0.0
2017-Dec-04 02:01N 18°19' W 064°56'2133.5
2017-Dec-04 02:00N 18°18' W 064°54'2 4.6 060 / 121014.0 5.4 26.023.127.0
2017-Dec-04 01:30N 18°19' W 064°56'0 0.0
2017-Dec-04 01:00N 18°19' W 064°56'0 0.0
2017-Dec-04 00:30N 18°19' W 064°56'0 0.0
2017-Dec-03 23:59N 18°19' W 064°56'0 0.0
2017-Dec-03 23:30N 18°19' W 064°56'0 0.0
2017-Dec-03 23:00N 18°19' W 064°56'0 0.0
2017-Dec-03 22:30N 18°19' W 064°56'0 0.0
2017-Dec-03 22:00N 18°19' W 064°56'0 0.0
2017-Dec-03 21:30N 18°19' W 064°56'0 0.0
2017-Dec-03 21:00N 18°19' W 064°56'1 2.6
2017-Dec-03 20:31N 18°20' W 064°57'0 0.3
2017-Dec-03 19:58N 18°20' W 064°57'0 0.0
2017-Dec-03 19:28N 18°20' W 064°57'0 0.0
2017-Dec-03 18:58N 18°20' W 064°57'0 0.0
2017-Dec-03 18:28N 18°20' W 064°57'0 0.1
2017-Dec-03 16:37N 18°20' W 064°57'0 0.0
2017-Dec-03 16:19N 18°20' W 064°57'0 0.0
2017-Dec-03 15:58N 18°20' W 064°57'0 0.0
2017-Dec-03 15:25N 18°20' W 064°57'0 0.0
2017-Dec-03 14:58N 18°20' W 064°57'0 0.0
2017-Dec-03 14:28N 18°20' W 064°57'0 0.0
2017-Dec-03 13:58N 18°20' W 064°57'0 0.0
2017-Dec-03 13:28N 18°20' W 064°57'0 0.0
2017-Dec-03 12:58N 18°20' W 064°57'0 0.0
2017-Dec-03 12:28N 18°20' W 064°57'0 0.0
2017-Dec-03 11:52N 18°20' W 064°57'0 0.0
2017-Dec-03 11:28N 18°20' W 064°57'0 0.0
2017-Dec-03 08:40N 18°20' W 064°57'0 0.0
2017-Dec-03 08:10N 18°20' W 064°57'0 0.0
2017-Dec-03 07:10N 18°20' W 064°57'0 0.0
2017-Dec-03 06:52N 18°20' W 064°57'0 0.0
2017-Dec-03 05:21N 18°20' W 064°57'0 0.0
2017-Dec-03 04:51N 18°20' W 064°57'0 0.0
2017-Dec-03 03:39N 18°20' W 064°57'0 0.0
2017-Dec-03 00:51N 18°20' W 064°57'0 0.0
2017-Dec-03 00:30N 18°20' W 064°57'0 0.0
2017-Dec-03 00:00N 18°20' W 064°57'0 0.0
2017-Dec-02 23:24N 18°20' W 064°57'0 0.0
2017-Dec-02 22:42N 18°20' W 064°57'0 0.0
2017-Dec-02 22:30N 18°20' W 064°57'0 0.0
2017-Dec-02 21:42N 18°20' W 064°57'0 0.0
2017-Dec-02 21:30N 18°20' W 064°57'0 0.0
2017-Dec-02 20:48N 18°20' W 064°57'0 0.0
2017-Dec-02 20:30N 18°20' W 064°57'0 0.0
2017-Dec-02 20:00N 18°20' W 064°57'0 0.0
2017-Dec-02 19:30N 18°20' W 064°57'0 0.0
2017-Dec-02 19:00N 18°20' W 064°57'0 0.0
2017-Dec-02 18:30N 18°20' W 064°57'0 0.3
2017-Dec-02 18:00N 18°20' W 064°57'0 0.0
2017-Dec-02 17:30N 18°20' W 064°57'0 0.0
2017-Dec-02 17:00N 18°20' W 064°57'0 0.0
2017-Dec-02 16:30N 18°20' W 064°57'0 0.0
2017-Dec-02 16:00N 18°20' W 064°57'0 0.0
2017-Dec-02 15:30N 18°20' W 064°57'0 0.1
2017-Dec-02 14:42N 18°20' W 064°57'0 0.6
2017-Dec-02 14:30N 18°20' W 064°57'0 0.0
2017-Dec-02 14:00N 18°20' W 064°57'0 0.0
2017-Dec-02 13:30N 18°20' W 064°57'0 0.0
2017-Dec-02 13:00N 18°20' W 064°57'0 0.0
2017-Dec-02 12:30N 18°20' W 064°57'2 4.2
2017-Dec-02 12:00N 18°18' W 064°57'4 7.3
2017-Dec-02 11:30N 18°15' W 064°56'4 8.7
2017-Dec-02 11:00N 18°10' W 064°56'83 4.0
2017-Dec-01 14:00N 17°42' W 066°18'   100 / 151014.010.8 28.022.128.0
Track history (hours):
 
Tides and Currents Weather Stations Pressure Air Temp Water Temp Dewpoint Dewpoint Depression Visibility Wind Speed Wind Dir Waves Ship Positions

Tropic Palm

Last reported at 2017-Dec-11 10:35 UTC. Time now 2017-Dec-12 04:16 UTC.
Position N 18°17' W 064°41'.

Type: Cargo ship. MMSI: 377911000.

Date/timePositionNaut miles runAvg speedWind from/ knotsBaromVisibWave heightAir tempDewpointWater temp
2017-Dec-11 10:35N 18°17' W 064°41'5 9.4
2017-Dec-11 10:06N 18°17' W 064°46'110.0
2017-Dec-11 10:00N 18°16' W 064°47'51172.9
2017-Dec-11 10:00N 18°12' W 064°48'612.0 110 / 141013.0 5.4 25.020.526.0
2017-Dec-11 09:30N 18°17' W 064°52'510.1
2017-Dec-11 09:01N 18°19' W 064°56'1 2.1
2017-Dec-11 08:28N 18°20' W 064°57'0 0.0
2017-Dec-11 07:58N 18°20' W 064°57'0 0.0
2017-Dec-11 07:28N 18°20' W 064°57'0 0.0
2017-Dec-11 06:58N 18°20' W 064°57'0 0.0
2017-Dec-11 06:28N 18°20' W 064°57'0 0.3
2017-Dec-11 06:00N 18°20' W 064°57'1 2.9
2017-Dec-11 05:30N 18°19' W 064°56'0 0.1
2017-Dec-11 04:59N 18°19' W 064°56'0 0.0
2017-Dec-11 04:29N 18°19' W 064°56'0 0.0
2017-Dec-11 03:59N 18°19' W 064°56'0 0.0
2017-Dec-11 03:29N 18°19' W 064°56'0 0.0
2017-Dec-11 02:59N 18°19' W 064°56'0 0.0
2017-Dec-11 02:29N 18°19' W 064°56'2 4.7
2017-Dec-11 02:00N 18°18' W 064°54'2167.5 090 / 181016.0 5.4 26.021.527.0
2017-Dec-11 01:59N 18°19' W 064°56'0 0.0
2017-Dec-11 01:29N 18°19' W 064°56'0 0.0
2017-Dec-11 00:59N 18°19' W 064°56'0 0.0
2017-Dec-11 00:29N 18°19' W 064°56'0 0.0
2017-Dec-10 23:59N 18°19' W 064°56'0 0.0
2017-Dec-10 23:29N 18°19' W 064°56'0 0.0
2017-Dec-10 22:59N 18°19' W 064°56'0 0.0
2017-Dec-10 22:29N 18°19' W 064°56'1 1.2
2017-Dec-10 22:00N 18°19' W 064°56'1 0.5
2017-Dec-10 20:07N 18°20' W 064°57'0 0.0
2017-Dec-10 19:58N 18°20' W 064°57'0 0.0
2017-Dec-10 19:30N 18°20' W 064°57'0 0.0
2017-Dec-10 18:55N 18°20' W 064°57'0 0.0
2017-Dec-10 18:22N 18°20' W 064°57'0 0.0
2017-Dec-10 17:52N 18°20' W 064°57'0 0.0
2017-Dec-10 17:28N 18°20' W 064°57'0 0.0
2017-Dec-10 16:58N 18°20' W 064°57'0 0.0
2017-Dec-10 16:28N 18°20' W 064°57'0 0.0
2017-Dec-10 16:00N 18°20' W 064°57'0 0.0
2017-Dec-10 15:19N 18°20' W 064°57'0 0.0
2017-Dec-10 14:58N 18°20' W 064°57'0 0.0
2017-Dec-10 14:30N 18°20' W 064°57'0 0.0
2017-Dec-10 13:51N 18°20' W 064°57'0 0.0
2017-Dec-10 13:07N 18°20' W 064°57'0 0.0
2017-Dec-10 13:00N 18°20' W 064°57'0 0.0
2017-Dec-10 12:28N 18°20' W 064°57'0 0.0
2017-Dec-10 10:48N 18°20' W 064°57'0 0.0
2017-Dec-10 10:30N 18°20' W 064°57'0 0.0
2017-Dec-10 10:00N 18°20' W 064°57'0 0.0
2017-Dec-10 09:30N 18°20' W 064°57'0 0.0
2017-Dec-10 09:00N 18°20' W 064°57'0 0.0
2017-Dec-10 08:30N 18°20' W 064°57'0 0.0
2017-Dec-10 08:00N 18°20' W 064°57'0 0.0
2017-Dec-10 07:30N 18°20' W 064°57'0 0.0
2017-Dec-10 07:00N 18°20' W 064°57'0 0.0
2017-Dec-10 06:30N 18°20' W 064°57'0 0.0
2017-Dec-10 06:00N 18°20' W 064°57'0 0.0
2017-Dec-10 05:30N 18°20' W 064°57'0 0.0
2017-Dec-10 05:00N 18°20' W 064°57'0 0.0
2017-Dec-10 04:30N 18°20' W 064°57'0 0.0
2017-Dec-10 04:00N 18°20' W 064°57'0 0.0
2017-Dec-10 03:30N 18°20' W 064°57'0 0.0
2017-Dec-10 03:00N 18°20' W 064°57'0 0.0
2017-Dec-10 02:30N 18°20' W 064°57'0 0.0
2017-Dec-10 01:57N 18°20' W 064°57'0 0.0
2017-Dec-10 01:30N 18°20' W 064°57'0 0.0
2017-Dec-10 01:00N 18°20' W 064°57'0 0.0
2017-Dec-10 00:30N 18°20' W 064°57'0 0.0
2017-Dec-09 23:57N 18°20' W 064°57'0 0.0
2017-Dec-09 23:30N 18°20' W 064°57'0 0.0
2017-Dec-09 23:00N 18°20' W 064°57'0 0.0
2017-Dec-09 22:30N 18°20' W 064°57'0 0.0
2017-Dec-09 22:00N 18°20' W 064°57'0 0.2
2017-Dec-09 21:30N 18°20' W 064°57'0 0.0
2017-Dec-09 20:48N 18°20' W 064°57'0 0.0
2017-Dec-09 20:30N 18°20' W 064°57'0 0.0
2017-Dec-09 20:00N 18°20' W 064°57'0 0.0
2017-Dec-09 19:30N 18°20' W 064°57'0 0.0
2017-Dec-09 19:00N 18°20' W 064°57'0 0.0
2017-Dec-09 18:30N 18°20' W 064°57'0 0.0
2017-Dec-09 18:00N 18°20' W 064°57'2 4.1
2017-Dec-09 17:30N 18°18' W 064°56'1 1.9
2017-Dec-09 17:00N 18°17' W 064°56'4 8.0
2017-Dec-09 16:30N 18°13' W 064°56'5 8.5
2017-Dec-09 15:55N 18°08' W 064°56'4 8.4
2017-Dec-09 15:25N 18°04' W 064°56'1611.3
2017-Dec-09 14:00N 17°48' W 064°54'13 0.7 100 / 28 10.8 27.019.327.0
2017-Dec-08 18:00N 17°36' W 065°00'4010.0 110 / 221015.0 5.4 27.021.026.0
2017-Dec-08 14:00N 17°36' W 065°42'57 9.6 080 / 351017.010.8 28.022.127.0
2017-Dec-08 08:00N 17°42' W 066°42'17 8.6 090 / 201013.3 5.4 27.022.626.0
2017-Dec-08 06:00N 17°42' W 067°00'4010.1 090 / 201014.5 5.4 27.021.026.0
2017-Dec-08 02:00N 17°48' W 067°42'8020.0 060 / 291016.2 5.4 26.019.927.0
2017-Dec-07 22:00N 17°54' W 066°18'15538.6 050 / 181014.9 5.4 25.018.827.0
2017-Dec-07 18:00N 18°06' W 069°00'47 1.7 090 / 201015.0 5.4 29.023.226.0
2017-Dec-06 14:00N 17°54' W 068°12'4611.5 100 / 261018.510.8 27.022.628.0
2017-Dec-06 10:00N 17°48' W 067°24'29 9.7 090 / 151016.2 5.4 25.020.526.0
2017-Dec-06 07:00N 17°42' W 066°54'5711.5 090 / 151016.0 5.4 27.022.626.0
2017-Dec-06 02:00N 17°48' W 065°54'36 9.1 100 / 251016.5 5.4 27.024.127.0
2017-Dec-05 22:00N 18°00' W 065°18'44 2.3 110 / 141014.5 5.4 25.020.526.0
2017-Dec-05 03:00N 18°18' W 064°36'11 0.6 100 / 191015.0 5.4 26.023.127.0
2017-Dec-04 09:08N 18°16' W 064°47'2 9.6
2017-Dec-04 08:56N 18°16' W 064°49'4 9.4
2017-Dec-04 08:30N 18°17' W 064°53'3 6.2
2017-Dec-04 08:01N 18°19' W 064°56'7427.6
2017-Dec-04 08:00N 18°12' W 064°54'714.4 110 / 121013.0 5.4 25.020.526.0
2017-Dec-04 07:30N 18°19' W 064°56'0 0.0
2017-Dec-04 07:00N 18°19' W 064°56'0 0.0
2017-Dec-04 06:30N 18°19' W 064°56'0 0.0
2017-Dec-04 06:00N 18°19' W 064°56'2196.1
2017-Dec-04 06:00N 18°18' W 064°54'2 4.5 140 / 81013.0 5.4 26.523.625.0
2017-Dec-04 05:30N 18°19' W 064°56'0 0.0
2017-Dec-04 05:00N 18°19' W 064°56'0 0.0
2017-Dec-04 04:30N 18°19' W 064°56'0 0.0
2017-Dec-04 03:58N 18°19' W 064°56'0 0.0
2017-Dec-04 03:30N 18°19' W 064°56'0 0.0
2017-Dec-04 03:01N 18°19' W 064°56'0 0.0
2017-Dec-04 02:31N 18°19' W 064°56'0 0.0
2017-Dec-04 02:01N 18°19' W 064°56'2133.5
2017-Dec-04 02:00N 18°18' W 064°54'2 4.6 060 / 121014.0 5.4 26.023.127.0
2017-Dec-04 01:30N 18°19' W 064°56'0 0.0
2017-Dec-04 01:00N 18°19' W 064°56'0 0.0
2017-Dec-04 00:30N 18°19' W 064°56'0 0.0
2017-Dec-03 23:59N 18°19' W 064°56'0 0.0
2017-Dec-03 23:30N 18°19' W 064°56'0 0.0
2017-Dec-03 23:00N 18°19' W 064°56'0 0.0
2017-Dec-03 22:30N 18°19' W 064°56'0 0.0
2017-Dec-03 22:00N 18°19' W 064°56'0 0.0
2017-Dec-03 21:30N 18°19' W 064°56'0 0.0
2017-Dec-03 21:00N 18°19' W 064°56'1 2.6
2017-Dec-03 20:31N 18°20' W 064°57'0 0.3
2017-Dec-03 19:58N 18°20' W 064°57'0 0.0
2017-Dec-03 19:28N 18°20' W 064°57'0 0.0
2017-Dec-03 18:58N 18°20' W 064°57'0 0.0
2017-Dec-03 18:28N 18°20' W 064°57'0 0.1
2017-Dec-03 16:37N 18°20' W 064°57'0 0.0
2017-Dec-03 16:19N 18°20' W 064°57'0 0.0
2017-Dec-03 15:58N 18°20' W 064°57'0 0.0
2017-Dec-03 15:25N 18°20' W 064°57'0 0.0
2017-Dec-03 14:58N 18°20' W 064°57'0 0.0
2017-Dec-03 14:28N 18°20' W 064°57'0 0.0
2017-Dec-03 13:58N 18°20' W 064°57'0 0.0
2017-Dec-03 13:28N 18°20' W 064°57'0 0.0
2017-Dec-03 12:58N 18°20' W 064°57'0 0.0
2017-Dec-03 12:28N 18°20' W 064°57'0 0.0
2017-Dec-03 11:52N 18°20' W 064°57'0 0.0
2017-Dec-03 11:28N 18°20' W 064°57'0 0.0
2017-Dec-03 08:40N 18°20' W 064°57'0 0.0
2017-Dec-03 08:10N 18°20' W 064°57'0 0.0
2017-Dec-03 07:10N 18°20' W 064°57'0 0.0
2017-Dec-03 06:52N 18°20' W 064°57'0 0.0
2017-Dec-03 05:21N 18°20' W 064°57'0 0.0
2017-Dec-03 04:51N 18°20' W 064°57'0 0.0
2017-Dec-03 03:39N 18°20' W 064°57'0 0.0
2017-Dec-03 00:51N 18°20' W 064°57'0 0.0
2017-Dec-03 00:30N 18°20' W 064°57'0 0.0
2017-Dec-03 00:00N 18°20' W 064°57'0 0.0
2017-Dec-02 23:24N 18°20' W 064°57'0 0.0
2017-Dec-02 22:42N 18°20' W 064°57'0 0.0
2017-Dec-02 22:30N 18°20' W 064°57'0 0.0
2017-Dec-02 21:42N 18°20' W 064°57'0 0.0
2017-Dec-02 21:30N 18°20' W 064°57'0 0.0
2017-Dec-02 20:48N 18°20' W 064°57'0 0.0
2017-Dec-02 20:30N 18°20' W 064°57'0 0.0
2017-Dec-02 20:00N 18°20' W 064°57'0 0.0
2017-Dec-02 19:30N 18°20' W 064°57'0 0.0
2017-Dec-02 19:00N 18°20' W 064°57'0 0.0
2017-Dec-02 18:30N 18°20' W 064°57'0 0.3
2017-Dec-02 18:00N 18°20' W 064°57'0 0.0
2017-Dec-02 17:30N 18°20' W 064°57'0 0.0
2017-Dec-02 17:00N 18°20' W 064°57'0 0.0
2017-Dec-02 16:30N 18°20' W 064°57'0 0.0
2017-Dec-02 16:00N 18°20' W 064°57'0 0.0
2017-Dec-02 15:30N 18°20' W 064°57'0 0.1
2017-Dec-02 14:42N 18°20' W 064°57'0 0.6
2017-Dec-02 14:30N 18°20' W 064°57'0 0.0
2017-Dec-02 14:00N 18°20' W 064°57'0 0.0
2017-Dec-02 13:30N 18°20' W 064°57'0 0.0
2017-Dec-02 13:00N 18°20' W 064°57'0 0.0
2017-Dec-02 12:30N 18°20' W 064°57'2 4.2
2017-Dec-02 12:00N 18°18' W 064°57'4 7.3
2017-Dec-02 11:30N 18°15' W 064°56'4 8.7
2017-Dec-02 11:00N 18°10' W 064°56'83 4.0
2017-Dec-01 14:00N 17°42' W 066°18'   100 / 151014.010.8 28.022.128.0

Dump ship's entire track history